createdAt,value
2019-01-16T00:04:31.010Z,5.12
2019-01-16T00:07:38.105Z,5.12
2019-01-16T00:10:46.640Z,5.12
2019-01-16T00:13:34.398Z,5.15
2019-01-16T00:16:22.140Z,5.09
2019-01-16T00:19:09.692Z,5.02
2019-01-16T00:24:46.531Z,4.96
2019-01-16T00:27:34.269Z,5.04
2019-01-16T00:32:57.323Z,5.01
2019-01-16T00:35:45.076Z,5.00
2019-01-16T00:43:56.999Z,5.08
2019-01-16T00:46:44.511Z,5.09
2019-01-16T00:49:32.023Z,4.94
2019-01-16T00:52:19.545Z,4.79
2019-01-16T01:03:16.997Z,4.88
2019-01-16T01:06:04.568Z,4.70
2019-01-16T01:08:52.319Z,4.82
2019-01-16T01:11:40.071Z,5.00
2019-01-16T01:14:27.833Z,4.84
2019-01-16T01:17:15.647Z,4.79
2019-01-16T01:20:03.156Z,4.88
2019-01-16T01:22:50.661Z,4.84
2019-01-16T01:25:38.177Z,4.72
2019-01-16T01:31:14.782Z,4.86
2019-01-16T01:36:51.385Z,4.72
2019-01-16T01:39:38.889Z,4.68
2019-01-16T01:42:26.407Z,4.74
2019-01-16T01:45:13.908Z,4.72
2019-01-16T01:50:36.639Z,4.74
2019-01-16T01:53:24.139Z,4.72
2019-01-16T01:56:11.887Z,4.69
2019-01-16T02:07:03.455Z,4.65
2019-01-16T02:09:50.958Z,4.69
2019-01-16T02:15:15.312Z,4.70
2019-01-16T02:18:03.111Z,4.58
2019-01-16T02:20:50.679Z,4.57
2019-01-16T02:23:38.423Z,4.64
2019-01-16T02:34:33.936Z,4.69
2019-01-16T02:37:21.448Z,4.66
2019-01-16T02:42:44.354Z,4.64
2019-01-16T02:48:07.216Z,4.69
2019-01-16T02:50:54.723Z,4.59
2019-01-16T02:53:42.221Z,4.52
2019-01-16T02:56:29.729Z,4.46
2019-01-16T03:02:06.318Z,4.27
2019-01-16T03:04:53.820Z,4.04
2019-01-16T03:10:16.862Z,3.53
2019-01-16T03:13:04.379Z,3.33
2019-01-16T03:15:51.876Z,3.07
2019-01-16T03:18:39.637Z,2.99
2019-01-16T03:21:46.489Z,3.01
2019-01-16T03:27:13.265Z,2.77
2019-01-16T03:30:00.785Z,2.80
2019-01-16T03:32:48.299Z,2.74
2019-01-16T03:35:35.818Z,2.75
2019-01-16T03:43:48.055Z,2.98
2019-01-16T03:46:35.555Z,2.98
2019-01-16T03:49:23.339Z,3.09
2019-01-16T03:52:10.838Z,3.13
2019-01-16T03:54:58.357Z,3.02
2019-01-16T04:00:35.026Z,2.87
2019-01-16T04:06:11.677Z,2.75
2019-01-16T04:08:59.189Z,2.79
2019-01-16T04:11:46.704Z,2.89
2019-01-16T04:14:53.808Z,3.00
2019-01-16T04:17:41.565Z,3.07
2019-01-16T04:20:29.072Z,3.17
2019-01-16T04:23:16.590Z,3.14
2019-01-16T04:26:04.345Z,3.22
2019-01-16T04:28:51.865Z,3.31
2019-01-16T04:31:39.365Z,3.39
2019-01-16T04:34:27.122Z,3.44
2019-01-16T04:37:14.875Z,3.31
2019-01-16T04:40:02.379Z,3.36
2019-01-16T04:42:50.133Z,3.41
2019-01-16T04:45:37.638Z,3.43
2019-01-16T04:48:25.159Z,3.44
2019-01-16T04:51:12.888Z,3.52
2019-01-16T04:54:00.406Z,3.50
2019-01-16T04:59:37.007Z,3.47
2019-01-16T05:07:39.360Z,3.37
2019-01-16T05:10:47.656Z,3.40
2019-01-16T05:13:35.175Z,3.34
2019-01-16T05:19:38.378Z,3.21
2019-01-16T05:22:39.563Z,3.22
2019-01-16T05:30:42.213Z,3.05
2019-01-16T05:36:37.805Z,3.04
2019-01-16T05:39:46.343Z,2.81
2019-01-16T05:42:33.862Z,2.88
2019-01-16T05:45:21.377Z,2.87
2019-01-16T05:51:03.509Z,2.94
2019-01-16T05:53:51.010Z,2.88
2019-01-16T05:56:38.533Z,2.91
2019-01-16T05:59:26.273Z,2.86
2019-01-16T06:02:13.793Z,2.76
2019-01-16T06:05:01.294Z,2.68
2019-01-16T06:10:44.025Z,2.71
2019-01-16T06:13:31.764Z,2.70
2019-01-16T06:16:19.291Z,2.69
2019-01-16T06:22:15.209Z,2.41
2019-01-16T06:30:46.644Z,2.48
2019-01-16T06:33:34.404Z,2.51
2019-01-16T06:36:22.002Z,2.57
2019-01-16T06:39:09.751Z,2.53
2019-01-16T06:47:12.127Z,2.55
2019-01-16T06:50:01.890Z,2.53
2019-01-16T06:52:49.361Z,2.48
2019-01-16T06:55:37.100Z,2.48
2019-01-16T06:58:24.848Z,2.35
2019-01-16T07:01:12.350Z,2.14
2019-01-16T07:03:59.866Z,2.04
2019-01-16T07:06:47.426Z,2.00
2019-01-16T07:09:34.879Z,1.85
2019-01-16T07:12:22.381Z,1.98
2019-01-16T07:15:10.143Z,1.88
2019-01-16T07:17:57.641Z,1.87
2019-01-16T07:20:45.398Z,1.82
2019-01-16T07:23:32.902Z,1.86
2019-01-16T07:26:20.652Z,1.80
2019-01-16T07:29:08.166Z,1.77
2019-01-16T07:31:55.681Z,1.76
2019-01-16T07:34:43.193Z,1.69
2019-01-16T07:40:09.993Z,1.89
2019-01-16T07:42:57.730Z,1.92
2019-01-16T07:45:45.241Z,1.77
2019-01-16T07:51:21.845Z,1.86
2019-01-16T07:54:09.347Z,1.92
2019-01-16T07:59:32.361Z,2.06
2019-01-16T08:02:19.862Z,1.96
2019-01-16T08:10:18.095Z,2.16
2019-01-16T08:13:05.599Z,2.10
2019-01-16T08:15:53.115Z,2.11
2019-01-16T08:18:40.636Z,2.17
2019-01-16T08:21:28.396Z,2.21
2019-01-16T08:24:15.900Z,2.22
2019-01-16T08:27:03.432Z,2.16
2019-01-16T08:29:51.165Z,2.29
2019-01-16T08:32:38.680Z,2.36
2019-01-16T08:35:46.974Z,2.48
2019-01-16T08:46:33.240Z,2.81
2019-01-16T08:49:20.765Z,2.67
2019-01-16T08:52:08.500Z,2.86
2019-01-16T08:54:56.025Z,2.91
2019-01-16T08:57:43.532Z,3.07
2019-01-16T09:00:52.075Z,3.01
2019-01-16T09:03:39.578Z,3.12
2019-01-16T09:06:27.349Z,3.20
2019-01-16T09:09:14.854Z,3.34
2019-01-16T09:12:02.442Z,3.15
2019-01-16T09:14:49.946Z,3.20
2019-01-16T09:17:37.473Z,3.36
2019-01-16T09:20:45.775Z,3.16
2019-01-16T09:23:33.294Z,3.24
2019-01-16T09:26:20.934Z,3.26
2019-01-16T09:29:08.640Z,3.60
2019-01-16T09:32:15.549Z,3.78
2019-01-16T09:40:18.239Z,3.53
2019-01-16T09:43:05.739Z,3.75
2019-01-16T09:45:53.256Z,3.76
2019-01-16T09:48:40.756Z,3.69
2019-01-16T09:59:22.969Z,3.91
2019-01-16T10:02:10.499Z,3.96
2019-01-16T10:04:58.018Z,3.95
2019-01-16T10:13:14.041Z,4.30
2019-01-16T10:16:01.797Z,4.34
2019-01-16T10:18:49.635Z,4.22
2019-01-16T10:21:37.157Z,4.38
2019-01-16T10:27:00.484Z,4.45
2019-01-16T10:29:48.254Z,4.62
2019-01-16T10:32:35.777Z,4.61
2019-01-16T10:35:23.467Z,4.83
2019-01-16T10:38:02.354Z,4.77
2019-01-16T10:40:50.540Z,4.89
2019-01-16T10:43:32.202Z,4.97
2019-01-16T10:46:18.429Z,5.09
2019-01-16T10:49:00.038Z,5.04
2019-01-16T10:51:46.639Z,4.95
2019-01-16T10:54:16.699Z,5.14
2019-01-16T10:56:53.206Z,5.22
2019-01-16T10:59:23.261Z,5.13
2019-01-16T11:01:59.093Z,5.29
2019-01-16T11:04:40.723Z,5.21
2019-01-16T11:07:13.707Z,5.42
2019-01-16T11:09:49.754Z,5.48
2019-01-16T11:12:22.999Z,5.25
2019-01-16T11:14:59.011Z,5.43
2019-01-16T11:17:31.740Z,5.56
2019-01-16T11:20:18.353Z,5.66
2019-01-16T11:23:03.483Z,5.67
2019-01-16T11:25:36.442Z,5.69
2019-01-16T11:28:06.637Z,6.03
2019-01-16T11:30:39.491Z,6.03
2019-01-16T11:33:09.568Z,6.17
2019-01-16T11:35:42.346Z,6.10
2019-01-16T11:38:12.432Z,6.22
2019-01-16T11:40:45.590Z,6.08
2019-01-16T11:43:31.194Z,6.10
2019-01-16T11:46:19.315Z,5.84
2019-01-16T11:49:05.506Z,5.96
2019-01-16T11:51:44.389Z,6.23
2019-01-16T11:54:23.901Z,6.13
2019-01-16T11:56:57.307Z,6.22
2019-01-16T11:59:27.347Z,6.38
2019-01-16T12:01:57.386Z,6.34
2019-01-16T12:04:43.936Z,5.86
2019-01-16T12:07:16.641Z,5.90
2019-01-16T12:09:55.420Z,5.94
2019-01-16T12:12:27.922Z,6.00
2019-01-16T12:15:10.001Z,6.06
2019-01-16T12:17:58.041Z,6.11
2019-01-16T12:20:40.006Z,6.17
2019-01-16T12:23:12.743Z,6.55
2019-01-16T12:25:57.977Z,6.53
2019-01-16T12:28:28.029Z,6.53
2019-01-16T12:31:00.756Z,6.85
2019-01-16T12:33:30.802Z,6.67
2019-01-16T12:36:03.684Z,6.62
2019-01-16T12:38:39.845Z,6.63
2019-01-16T12:41:10.193Z,6.83
2019-01-16T12:43:46.015Z,6.67
2019-01-16T12:46:28.332Z,6.63
2019-01-16T12:49:16.660Z,6.67
2019-01-16T12:51:55.931Z,6.61
2019-01-16T12:54:42.441Z,6.84
2019-01-16T12:57:28.687Z,7.08
2019-01-16T13:00:04.242Z,7.25
2019-01-16T13:02:36.866Z,7.10
2019-01-16T13:05:09.186Z,6.95
2019-01-16T13:07:54.728Z,7.02
2019-01-16T13:10:32.972Z,6.87
2019-01-16T13:13:05.992Z,6.86
2019-01-16T13:15:36.203Z,6.90
2019-01-16T13:18:06.480Z,7.20
2019-01-16T13:20:39.260Z,7.17
2019-01-16T13:23:12.400Z,7.25
2019-01-16T13:25:58.985Z,7.24
2019-01-16T13:28:29.015Z,7.55
2019-01-16T13:31:10.857Z,7.48
2019-01-16T13:33:41.180Z,7.52
2019-01-16T13:36:11.218Z,7.46
2019-01-16T13:38:41.251Z,7.49
2019-01-16T13:41:27.760Z,7.56
2019-01-16T13:44:12.857Z,7.61
2019-01-16T13:46:48.790Z,7.59
2019-01-16T13:49:18.827Z,7.72
2019-01-16T13:52:05.048Z,7.55
2019-01-16T13:54:41.085Z,7.30
2019-01-16T13:57:20.310Z,7.55
2019-01-16T13:59:50.338Z,7.32
2019-01-16T14:02:26.372Z,7.17
2019-01-16T14:05:05.573Z,7.19
2019-01-16T14:07:35.609Z,7.26
2019-01-16T14:10:08.326Z,7.26
2019-01-16T14:12:54.864Z,7.17
2019-01-16T14:15:41.659Z,7.01
2019-01-16T14:18:11.756Z,7.27
2019-01-16T14:20:42.102Z,7.23
2019-01-16T14:23:24.139Z,7.13
2019-01-16T14:25:56.739Z,7.21
2019-01-16T14:28:26.758Z,7.27
2019-01-16T14:31:05.833Z,7.23
2019-01-16T14:33:36.151Z,7.16
2019-01-16T14:36:06.884Z,6.98
2019-01-16T14:38:36.919Z,7.02
2019-01-16T14:41:12.971Z,7.03
2019-01-16T14:43:48.986Z,6.99
2019-01-16T14:46:37.675Z,7.05
2019-01-16T14:49:10.881Z,6.94
2019-01-16T14:51:50.666Z,6.98
2019-01-16T14:54:38.922Z,6.67
2019-01-16T14:57:18.484Z,6.64
2019-01-16T14:59:54.020Z,6.70
2019-01-16T15:02:24.356Z,6.50
2019-01-16T15:05:09.683Z,6.46
2019-01-16T15:07:42.637Z,6.39
2019-01-16T15:10:12.739Z,6.33
2019-01-16T15:12:58.878Z,6.24
2019-01-16T15:15:43.721Z,6.20
2019-01-16T15:18:22.842Z,6.20
2019-01-16T15:20:52.876Z,6.21
2019-01-16T15:23:22.914Z,6.02
2019-01-16T15:25:52.952Z,5.95
2019-01-16T15:28:34.704Z,5.93
2019-01-16T15:31:16.997Z,5.94
2019-01-16T15:33:49.442Z,5.85
2019-01-16T15:36:28.365Z,5.76
2019-01-16T15:39:07.367Z,5.68
2019-01-16T15:41:40.568Z,5.52
2019-01-16T15:44:10.601Z,5.45
2019-01-16T15:46:49.753Z,5.50
2019-01-16T15:49:22.756Z,5.50
2019-01-16T15:51:58.486Z,5.46
2019-01-16T15:54:28.518Z,5.39
2019-01-16T15:57:01.606Z,5.35
2019-01-16T15:59:43.627Z,5.30
2019-01-16T16:02:19.902Z,5.30
2019-01-16T16:05:05.303Z,5.55
2019-01-16T16:07:37.755Z,5.37
2019-01-16T16:10:16.838Z,5.37
2019-01-16T16:12:46.894Z,5.30
2019-01-16T16:15:23.007Z,5.34
2019-01-16T16:17:53.058Z,5.28
2019-01-16T16:20:25.747Z,5.31
2019-01-16T16:22:56.024Z,5.23
2019-01-16T16:25:26.071Z,5.19
2019-01-16T16:27:59.155Z,5.16
2019-01-16T16:30:44.400Z,5.15
2019-01-16T16:33:29.062Z,5.11
2019-01-16T16:36:10.989Z,5.03
2019-01-16T16:38:57.697Z,5.13
2019-01-16T16:41:45.449Z,5.14
2019-01-16T16:44:32.970Z,4.98
2019-01-16T16:58:09.514Z,5.10
2019-01-16T17:03:46.244Z,4.89
2019-01-16T17:12:17.356Z,5.04
2019-01-16T17:15:04.864Z,4.89
2019-01-16T17:20:31.957Z,4.91
2019-01-16T17:23:19.510Z,4.82
2019-01-16T17:28:42.627Z,4.97
2019-01-16T17:31:30.151Z,5.02
2019-01-16T17:34:17.668Z,5.04
2019-01-16T17:37:05.447Z,5.05
2019-01-16T17:39:52.966Z,5.06
2019-01-16T17:42:40.541Z,5.00
2019-01-16T17:45:28.240Z,5.01
2019-01-16T17:48:15.760Z,5.04
2019-01-16T17:54:01.075Z,4.98
2019-01-16T17:59:37.677Z,4.82
2019-01-16T18:02:25.327Z,4.81
2019-01-16T18:08:01.919Z,4.80
2019-01-16T18:13:38.521Z,4.72
2019-01-16T18:16:26.022Z,4.68
2019-01-16T18:19:13.541Z,4.67
2019-01-16T18:27:29.624Z,4.65
2019-01-16T18:30:17.139Z,4.58
2019-01-16T18:33:04.895Z,4.69
2019-01-16T18:35:52.644Z,4.71
2019-01-16T18:46:40.221Z,4.51
2019-01-16T18:49:27.725Z,4.58
2019-01-16T18:52:15.248Z,4.51
2019-01-16T18:55:02.755Z,4.53
2019-01-16T19:00:48.788Z,4.27
2019-01-16T19:03:36.544Z,4.21
2019-01-16T19:06:24.180Z,4.11
2019-01-16T19:09:11.705Z,4.09
2019-01-16T19:11:59.206Z,4.05
2019-01-16T19:14:46.959Z,3.93
2019-01-16T19:17:34.459Z,3.83
2019-01-16T19:20:22.112Z,3.69
2019-01-16T19:23:09.869Z,3.75
2019-01-16T19:31:12.561Z,3.44
2019-01-16T19:34:00.082Z,3.52
2019-01-16T19:36:47.595Z,3.50
2019-01-16T19:39:35.115Z,3.48
2019-01-16T19:42:22.613Z,3.49
2019-01-16T19:45:10.129Z,3.48
2019-01-16T19:47:57.629Z,3.56
2019-01-16T19:50:45.147Z,3.52
2019-01-16T19:53:32.897Z,3.72
2019-01-16T19:56:20.488Z,3.59
2019-01-16T19:59:08.293Z,3.68
2019-01-16T20:01:55.814Z,3.59
2019-01-16T20:07:32.481Z,3.71
2019-01-16T20:10:19.984Z,3.70
2019-01-16T20:13:07.499Z,3.81
2019-01-16T20:19:03.076Z,3.77
2019-01-16T20:27:34.517Z,3.67
2019-01-16T20:33:11.425Z,3.82
2019-01-16T20:35:58.938Z,3.88
2019-01-16T20:38:46.695Z,3.85
2019-01-16T20:46:52.666Z,4.05
2019-01-16T20:49:40.178Z,4.18
2019-01-16T20:55:16.911Z,4.73
2019-01-16T21:00:53.507Z,4.87
2019-01-16T21:03:41.239Z,4.80
2019-01-16T21:06:28.756Z,4.83
2019-01-16T21:09:16.256Z,4.86
2019-01-16T21:12:03.913Z,4.89
2019-01-16T21:14:51.651Z,4.94
2019-01-16T21:17:39.169Z,5.01
2019-01-16T21:20:47.459Z,5.11
2019-01-16T21:23:35.041Z,5.13
2019-01-16T21:26:22.541Z,5.16
2019-01-16T21:34:29.074Z,5.07
2019-01-16T21:37:16.576Z,4.95
2019-01-16T21:42:39.626Z,4.97
2019-01-16T21:45:46.487Z,4.90
2019-01-16T21:48:54.785Z,4.97
2019-01-16T21:54:17.906Z,4.89
2019-01-16T21:59:54.505Z,5.13
2019-01-16T22:02:42.235Z,5.17
2019-01-16T22:05:29.821Z,5.16
2019-01-16T22:08:17.325Z,5.20
2019-01-16T22:11:04.887Z,5.10
2019-01-16T22:13:52.360Z,5.03
2019-01-16T22:22:13.949Z,5.13
2019-01-16T22:30:45.515Z,4.95
2019-01-16T22:33:33.268Z,4.94
2019-01-16T22:36:20.775Z,4.90
2019-01-16T22:39:08.359Z,4.92
2019-01-16T22:41:55.862Z,5.01
2019-01-16T22:44:43.381Z,5.09
2019-01-16T22:47:30.888Z,5.07
2019-01-16T22:50:18.479Z,5.06
2019-01-16T22:53:05.995Z,4.97
2019-01-16T22:58:29.173Z,4.82
2019-01-16T23:01:37.489Z,4.73
2019-01-16T23:07:14.326Z,4.54
2019-01-16T23:10:01.829Z,4.55
2019-01-16T23:12:49.355Z,4.55
2019-01-16T23:15:36.864Z,4.57
2019-01-16T23:20:59.794Z,4.64
2019-01-16T23:23:49.861Z,4.57
2019-01-16T23:26:36.550Z,4.63
2019-01-16T23:29:50.297Z,4.56
2019-01-16T23:32:34.400Z,4.58
2019-01-16T23:35:22.234Z,4.50
2019-01-16T23:48:48.881Z,4.40
2019-01-16T23:51:36.416Z,4.31
2019-01-16T23:54:44.705Z,4.36
